Time;durP1;ratioP1;P1;durP2;ratioP2;P2;SDS_P1;SDS_P2;PMS_P1;PMS_P2;Temp;Humidity;BMP_temperature;BMP_pressure;BME280_temperature;BME280_humidity;BME280_pressure;Samples;Min_cycle;Max_cycle;Signal;HPM_P1;HPM_P2
2022/11/02 00:01:15;;;;;;;18.33;5.03;;;;;;;;;;12739828;23;20020;-80
2022/11/02 00:06:15;;;;;;;12.82;5.38;;;;;;;;;;12763810;23;20048;-74
2022/11/02 00:11:15;;;;;;;16.10;5.57;;;;;;;;;;12764901;23;20059;-78
2022/11/02 00:16:17;;;;;;;15.23;6.32;;;;;;;;;;12763790;23;19997;-75
2022/11/02 00:21:18;;;;;;;24.02;5.90;;;;;;;;;;12775174;23;20353;-73
2022/11/02 00:26:18;;;;;;;15.55;5.78;;;;;;;;;;12764415;23;20004;-77
2022/11/02 00:31:18;;;;;;;18.55;6.13;;;;;;;;;;12763478;23;20001;-76
2022/11/02 00:36:19;;;;;;;11.70;5.15;;;;;;;;;;12763689;23;20442;-76
2022/11/02 00:41:20;;;;;;;19.95;4.97;;;;;;;;;;12763962;23;20000;-73
2022/11/02 00:46:20;;;;;;;13.85;4.45;;;;;;;;;;12763987;23;20102;-74
2022/11/02 00:51:20;;;;;;;14.05;5.72;;;;;;;;;;12810328;23;20079;-73
2022/11/02 00:56:20;;;;;;;9.43;3.03;;;;;;;;;;12766431;23;20048;-73
2022/11/02 01:01:21;;;;;;;12.23;3.60;;;;;;;;;;12783093;23;20076;-77
2022/11/02 01:06:21;;;;;;;13.25;5.55;;;;;;;;;;12784087;23;20004;-77
2022/11/02 01:11:22;;;;;;;9.32;3.85;;;;;;;;;;12774273;23;20345;-74
2022/11/02 01:16:22;;;;;;;8.07;3.97;;;;;;;;;;12767815;23;20000;-77
2022/11/02 01:21:23;;;;;;;15.27;3.63;;;;;;;;;;12762470;23;19997;-76
2022/11/02 01:26:24;;;;;;;11.50;3.70;;;;;;;;;;12737697;23;19993;-76
2022/11/02 01:31:24;;;;;;;12.93;4.25;;;;;;;;;;12783231;23;20369;-73
2022/11/02 01:36:24;;;;;;;15.93;4.47;;;;;;;;;;12809524;23;19989;-75
2022/11/02 01:41:25;;;;;;;12.57;3.83;;;;;;;;;;12762429;23;20001;-79
2022/11/02 01:46:40;;;;;;;12.07;6.20;;;;;;;;;;12762709;23;20096;-74
2022/11/02 01:51:44;;;;;;;8.82;3.83;;;;;;;;;;12762122;23;20005;-76
2022/11/02 01:56:46;;;;;;;11.82;3.53;;;;;;;;;;12762644;23;19993;-74
2022/11/02 02:01:47;;;;;;;12.02;5.25;;;;;;;;;;12783596;23;20083;-74
2022/11/02 02:06:48;;;;;;;26.70;5.60;;;;;;;;;;12763682;23;20453;-78
2022/11/02 02:11:48;;;;;;;14.20;5.80;;;;;;;;;;12809614;23;20004;-74
2022/11/02 02:16:51;;;;;;;18.13;4.22;;;;;;;;;;12737769;23;20433;-76
2022/11/02 02:22:01;;;;;;;17.77;6.03;;;;;;;;;;12762164;23;19999;-74
2022/11/02 02:27:06;;;;;;;15.57;5.15;;;;;;;;;;12762003;23;19993;-79
2022/11/02 02:32:36;;;;;;;15.05;5.13;;;;;;;;;;12762823;23;20036;-75
2022/11/02 02:37:41;;;;;;;17.55;6.47;;;;;;;;;;12734909;23;19993;-74
2022/11/02 02:42:49;;;;;;;10.98;5.03;;;;;;;;;;12765249;23;20004;-73
2022/11/02 02:48:06;;;;;;;23.10;5.28;;;;;;;;;;12766469;23;20017;-75
2022/11/02 02:53:07;;;;;;;14.38;4.72;;;;;;;;;;12766371;23;20011;-78
2022/11/02 02:58:09;;;;;;;16.48;4.00;;;;;;;;;;12766056;23;20077;-75
2022/11/02 03:03:15;;;;;;;12.88;4.18;;;;;;;;;;12766684;23;20056;-75
2022/11/02 03:08:16;;;;;;;13.90;3.95;;;;;;;;;;12764509;23;20091;-75
2022/11/02 03:13:26;;;;;;;14.77;3.88;;;;;;;;;;12765949;23;20061;-74
2022/11/02 03:18:45;;;;;;;16.40;4.45;;;;;;;;;;12812362;23;20007;-75
2022/11/02 03:23:54;;;;;;;9.52;3.60;;;;;;;;;;12766750;23;19989;-75
2022/11/02 03:29:05;;;;;;;17.77;4.30;;;;;;;;;;12790482;23;20001;-74
2022/11/02 03:34:28;;;;;;;9.10;3.67;;;;;;;;;;12789721;23;20076;-74
2022/11/02 03:39:33;;;;;;;15.02;4.78;;;;;;;;;;12782368;23;20024;-74
2022/11/02 03:44:35;;;;;;;13.43;4.88;;;;;;;;;;12791848;23;20012;-74
2022/11/02 03:49:38;;;;;;;11.82;5.25;;;;;;;;;;12817359;23;20139;-79
2022/11/02 03:54:42;;;;;;;14.85;5.47;;;;;;;;;;12826528;23;19993;-81
2022/11/02 03:59:43;;;;;;;15.88;4.70;;;;;;;;;;12826583;23;19993;-72
2022/11/02 04:04:46;;;;;;;7.35;4.95;;;;;;;;;;12825866;23;20005;-75
2022/11/02 04:09:46;;;;;;;12.98;5.70;;;;;;;;;;12800608;23;20005;-73
2022/11/02 04:14:47;;;;;;;13.13;4.57;;;;;;;;;;12825825;23;19996;-73
2022/11/02 04:19:49;;;;;;;6.55;4.15;;;;;;;;;;12825689;23;19997;-76
2022/11/02 04:30:08;;;;;;;12.88;5.25;;;;;;;;;;12872983;23;20001;-73
2022/11/02 04:35:09;;;;;;;12.40;4.53;;;;;;;;;;12868193;23;19992;-78
2022/11/02 04:40:09;;;;;;;15.93;4.63;;;;;;;;;;12824688;23;19992;-74
2022/11/02 04:45:11;;;;;;;10.60;5.13;;;;;;;;;;12824856;23;20007;-78
2022/11/02 04:50:11;;;;;;;11.77;4.60;;;;;;;;;;12823933;23;20048;-77
2022/11/02 04:55:11;;;;;;;13.20;4.67;;;;;;;;;;12824299;23;20063;-75
2022/11/02 05:00:12;;;;;;;12.80;4.93;;;;;;;;;;12824361;23;20094;-77
2022/11/02 05:05:13;;;;;;;13.20;6.03;;;;;;;;;;12871809;23;20005;-75
2022/11/02 05:10:13;;;;;;;19.85;5.93;;;;;;;;;;12799227;23;20055;-75
2022/11/02 05:15:15;;;;;;;25.77;7.53;;;;;;;;;;12824029;23;20000;-76
2022/11/02 05:20:15;;;;;;;16.92;6.13;;;;;;;;;;12824080;23;19996;-75
2022/11/02 05:25:16;;;;;;;30.35;9.27;;;;;;;;;;12824252;23;20028;-79
2022/11/02 05:30:17;;;;;;;26.33;9.50;;;;;;;;;;12871300;23;20009;-77
2022/11/02 05:35:17;;;;;;;30.80;10.57;;;;;;;;;;12823910;23;20394;-75
2022/11/02 05:40:18;;;;;;;29.77;10.48;;;;;;;;;;12823889;23;20455;-74
2022/11/02 05:45:18;;;;;;;35.22;11.55;;;;;;;;;;12824061;23;20255;-74
2022/11/02 05:50:19;;;;;;;34.17;11.65;;;;;;;;;;12825895;23;20069;-76
2022/11/02 05:55:19;;;;;;;27.40;12.83;;;;;;;;;;12844014;23;19989;-75
2022/11/02 06:00:20;;;;;;;30.03;10.97;;;;;;;;;;12843258;23;20259;-74
2022/11/02 06:05:20;;;;;;;33.70;13.93;;;;;;;;;;12881111;23;20266;-74
2022/11/02 06:10:20;;;;;;;39.08;12.15;;;;;;;;;;12870704;23;20463;-74
2022/11/02 06:15:21;;;;;;;40.13;13.93;;;;;;;;;;12827663;23;20421;-74
2022/11/02 06:20:21;;;;;;;32.33;13.43;;;;;;;;;;12826901;23;19993;-75
2022/11/02 06:25:21;;;;;;;20.25;9.27;;;;;;;;;;12827234;23;19997;-80
2022/11/02 06:30:23;;;;;;;30.90;8.70;;;;;;;;;;12826407;23;20000;-74
2022/11/02 06:35:23;;;;;;;21.17;5.95;;;;;;;;;;12826813;23;20059;-76
2022/11/02 06:40:23;;;;;;;18.73;5.82;;;;;;;;;;12826482;23;20084;-79
2022/11/02 06:45:24;;;;;;;18.23;6.68;;;;;;;;;;12825385;23;20004;-75
2022/11/02 06:50:24;;;;;;;15.90;5.18;;;;;;;;;;12811751;23;20043;-75
2022/11/02 06:55:24;;;;;;;11.07;5.63;;;;;;;;;;12810712;23;20024;-75
2022/11/02 07:00:24;;;;;;;24.35;6.10;;;;;;;;;;12763663;23;20232;-74
2022/11/02 07:05:25;;;;;;;16.60;6.88;;;;;;;;;;12764359;23;19997;-76
2022/11/02 07:10:25;;;;;;;20.48;6.13;;;;;;;;;;12811070;23;20004;-77
2022/11/02 07:15:26;;;;;;;23.25;7.03;;;;;;;;;;12811221;23;20016;-80
2022/11/02 07:20:26;;;;;;;18.42;6.43;;;;;;;;;;12763919;23;20000;-75
2022/11/02 07:25:29;;;;;;;28.88;7.85;;;;;;;;;;12764062;23;20437;-75
2022/11/02 07:30:31;;;;;;;38.75;10.23;;;;;;;;;;12764765;23;20004;-77
2022/11/02 07:35:33;;;;;;;26.77;8.68;;;;;;;;;;12811217;23;19993;-74
2022/11/02 07:40:34;;;;;;;24.67;8.70;;;;;;;;;;12763238;23;20051;-74
2022/11/02 07:45:34;;;;;;;23.80;8.52;;;;;;;;;;12763127;23;20409;-75
2022/11/02 07:50:34;;;;;;;23.88;9.02;;;;;;;;;;12763666;23;20001;-76
2022/11/02 07:55:34;;;;;;;25.35;8.15;;;;;;;;;;12763272;23;20000;-75
2022/11/02 08:00:36;;;;;;;20.33;9.18;;;;;;;;;;12763811;23;20032;-75
2022/11/02 08:05:38;;;;;;;32.15;8.43;;;;;;;;;;12763734;23;20001;-74
2022/11/02 08:10:38;;;;;;;27.92;9.82;;;;;;;;;;12810048;23;20429;-74
2022/11/02 08:15:38;;;;;;;25.37;8.77;;;;;;;;;;12764181;23;19993;-82
2022/11/02 08:20:39;;;;;;;25.80;9.38;;;;;;;;;;12764434;23;20746;-79
2022/11/02 08:25:40;;;;;;;31.60;10.18;;;;;;;;;;12763095;23;19989;-74
2022/11/02 08:30:40;;;;;;;27.50;11.35;;;;;;;;;;12763084;23;20345;-78
2022/11/02 08:35:41;;;;;;;26.63;12.10;;;;;;;;;;12804241;23;19996;-80
2022/11/02 08:40:41;;;;;;;35.83;11.35;;;;;;;;;;12738013;23;19997;-75
2022/11/02 08:45:43;;;;;;;26.58;9.75;;;;;;;;;;12738574;23;20051;-78
2022/11/02 08:50:43;;;;;;;24.80;9.95;;;;;;;;;;12763456;23;20084;-77
2022/11/02 08:55:43;;;;;;;27.50;10.00;;;;;;;;;;12762331;23;20020;-75
2022/11/02 09:00:45;;;;;;;31.27;9.65;;;;;;;;;;12763007;23;19993;-77
2022/11/02 09:05:46;;;;;;;26.65;10.85;;;;;;;;;;12762609;23;19997;-78
2022/11/02 09:10:48;;;;;;;32.50;10.88;;;;;;;;;;12762594;23;20071;-75
2022/11/02 09:15:49;;;;;;;25.98;10.48;;;;;;;;;;12809576;23;20060;-75
2022/11/02 09:20:50;;;;;;;26.20;9.50;;;;;;;;;;12762200;23;20047;-79
2022/11/02 09:25:50;;;;;;;33.97;8.73;;;;;;;;;;12761872;23;19997;-74
2022/11/02 09:30:50;;;;;;;39.28;10.35;;;;;;;;;;12808987;23;20001;-77
2022/11/02 09:35:51;;;;;;;37.25;10.02;;;;;;;;;;12761565;23;19997;-80
2022/11/02 09:40:57;;;;;;;35.05;9.23;;;;;;;;;;12762213;23;20477;-76
2022/11/02 09:45:57;;;;;;;;;;;;;;;;;;12762874;23;20016;-75
2022/11/02 09:51:04;;;;;;;27.02;8.15;;;;;;;;;;12762181;23;19915;-75
2022/11/02 09:56:06;;;;;;;30.40;8.27;;;;;;;;;;12737274;23;20442;-78
2022/11/02 10:01:26;;;;;;;27.50;7.97;;;;;;;;;;12761978;23;20071;-74
2022/11/02 10:06:26;;;;;;;27.52;8.82;;;;;;;;;;12760381;23;19993;-73
2022/11/02 10:11:39;;;;;;;31.60;7.82;;;;;;;;;;12809369;23;19997;-82
2022/11/02 10:16:46;;;;;;;21.80;8.18;;;;;;;;;;12760873;23;20024;-75
2022/11/02 10:21:48;;;;;;;30.38;8.85;;;;;;;;;;12797722;23;20079;-78
2022/11/02 10:26:49;;;;;;;36.03;8.65;;;;;;;;;;12761040;23;20048;-75
2022/11/02 10:31:50;;;;;;;19.98;7.53;;;;;;;;;;12765250;23;20025;-75
2022/11/02 10:36:54;;;;;;;29.55;8.40;;;;;;;;;;12767641;23;20008;-82
2022/11/02 10:41:55;;;;;;;23.73;6.63;;;;;;;;;;12761688;23;20044;-78
2022/11/02 10:47:13;;;;;;;22.13;6.55;;;;;;;;;;12796089;23;20073;-77
2022/11/02 10:52:15;;;;;;;30.65;6.60;;;;;;;;;;12760988;23;20005;-76
2022/11/02 10:57:19;;;;;;;24.80;7.35;;;;;;;;;;12810521;23;20426;-75
2022/11/02 11:02:19;;;;;;;26.45;6.28;;;;;;;;;;12739873;23;19993;-76
2022/11/02 11:07:24;;;;;;;16.52;5.63;;;;;;;;;;12764566;23;20087;-74
2022/11/02 11:12:29;;;;;;;35.30;6.40;;;;;;;;;;12764772;23;20004;-75
2022/11/02 11:17:34;;;;;;;19.17;6.00;;;;;;;;;;12764048;23;20044;-78
2022/11/02 11:22:35;;;;;;;24.42;5.88;;;;;;;;;;12764749;23;19997;-73
2022/11/02 11:27:45;;;;;;;18.63;4.82;;;;;;;;;;12764176;23;20403;-76
2022/11/02 11:32:46;;;;;;;14.23;5.40;;;;;;;;;;12764451;23;19997;-74
2022/11/02 11:37:48;;;;;;;12.30;3.90;;;;;;;;;;12764048;23;20472;-74
2022/11/02 11:42:53;;;;;;;22.98;4.72;;;;;;;;;;12763995;23;19989;-75
2022/11/02 11:48:13;;;;;;;10.48;3.10;;;;;;;;;;12793204;23;20021;-80
2022/11/02 11:53:24;;;;;;;19.17;3.45;;;;;;;;;;12763269;23;19997;-76
2022/11/02 11:58:25;;;;;;;12.43;3.05;;;;;;;;;;12810462;23;20000;-78
2022/11/02 12:03:27;;;;;;;21.30;3.97;;;;;;;;;;12763538;23;20012;-79
2022/11/02 12:08:46;;;;;;;24.40;4.40;;;;;;;;;;12763395;23;20437;-75
2022/11/02 12:14:05;;;;;;;17.88;4.10;;;;;;;;;;12763380;23;20438;-78
2022/11/02 12:19:05;;;;;;;12.35;2.58;;;;;;;;;;12810217;23;19997;-76
2022/11/02 12:24:32;;;;;;;16.97;3.47;;;;;;;;;;12763133;23;20477;-75
2022/11/02 12:29:52;;;;;;;11.50;2.80;;;;;;;;;;12707357;23;21052;-75
2022/11/02 12:35:22;;;;;;;15.65;3.72;;;;;;;;;;12805480;23;19997;-79
2022/11/02 12:40:31;;;;;;;12.90;3.70;;;;;;;;;;12634162;23;20401;-77
2022/11/02 12:45:32;;;;;;;12.15;3.30;;;;;;;;;;12762395;23;20052;-76
2022/11/02 12:50:43;;;;;;;17.27;3.25;;;;;;;;;;12762748;23;20004;-80
2022/11/02 12:55:44;;;;;;;16.08;3.90;;;;;;;;;;12762735;23;20402;-76
2022/11/02 13:00:47;;;;;;;19.67;3.50;;;;;;;;;;12762634;23;20123;-74
2022/11/02 13:05:53;;;;;;;9.52;2.80;;;;;;;;;;12808614;23;19985;-79
2022/11/02 13:10:56;;;;;;;13.93;3.22;;;;;;;;;;12767558;23;19997;-78
2022/11/02 13:15:58;;;;;;;8.55;3.08;;;;;;;;;;12761915;23;20052;-75
2022/11/02 13:21:01;;;;;;;17.73;3.38;;;;;;;;;;12761199;23;20005;-77
2022/11/02 13:26:14;;;;;;;15.85;3.50;;;;;;;;;;12781957;23;19989;-79
2022/11/02 13:31:17;;;;;;;22.48;6.20;;;;;;;;;;12759608;23;20047;-76
2022/11/02 13:36:17;;;;;;;10.40;3.17;;;;;;;;;;12760820;23;20051;-81
2022/11/02 13:41:23;;;;;;;19.67;3.67;;;;;;;;;;12760682;23;20001;-80
2022/11/02 13:46:52;;;;;;;15.15;3.78;;;;;;;;;;12760751;23;20320;-75
2022/11/02 13:51:54;;;;;;;24.95;3.60;;;;;;;;;;12759828;23;20001;-77
2022/11/02 13:56:55;;;;;;;11.32;3.65;;;;;;;;;;12760149;23;20067;-74
2022/11/02 14:01:58;;;;;;;9.70;3.97;;;;;;;;;;12807135;23;20426;-74
2022/11/02 14:07:03;;;;;;;17.73;4.35;;;;;;;;;;12760346;23;19997;-77
2022/11/02 14:12:21;;;;;;;15.55;3.55;;;;;;;;;;12807426;23;20051;-80
2022/11/02 14:17:21;;;;;;;14.65;3.78;;;;;;;;;;12760247;23;20024;-74
2022/11/02 14:22:22;;;;;;;22.98;3.65;;;;;;;;;;12760501;23;19997;-73
2022/11/02 14:27:22;;;;;;;15.13;4.22;;;;;;;;;;12759956;23;19989;-73
2022/11/02 14:32:40;;;;;;;15.50;4.03;;;;;;;;;;12811747;23;20390;-75
2022/11/02 14:37:44;;;;;;;13.50;3.80;;;;;;;;;;12784112;23;20531;-74
2022/11/02 14:42:56;;;;;;;24.27;4.30;;;;;;;;;;12810358;23;20047;-74
2022/11/02 14:47:58;;;;;;;15.75;4.18;;;;;;;;;;12764008;23;20023;-76
2022/11/02 14:53:07;;;;;;;18.17;6.03;;;;;;;;;;12809871;23;20001;-77
2022/11/02 14:58:13;;;;;;;20.40;4.50;;;;;;;;;;12800746;23;20076;-76
2022/11/02 15:03:33;;;;;;;11.25;4.60;;;;;;;;;;12810416;23;19993;-76
2022/11/02 15:08:45;;;;;;;15.13;5.22;;;;;;;;;;12761646;23;20441;-75
2022/11/02 15:13:46;;;;;;;23.23;6.47;;;;;;;;;;12762171;23;19999;-74
2022/11/02 15:18:47;;;;;;;23.00;5.05;;;;;;;;;;12762792;23;20028;-80
2022/11/02 15:23:56;;;;;;;21.50;6.27;;;;;;;;;;12782087;23;19989;-76
2022/11/02 15:28:59;;;;;;;19.75;5.13;;;;;;;;;;12762658;23;20301;-75
2022/11/02 15:34:02;;;;;;;21.02;5.32;;;;;;;;;;12761951;23;20143;-80
2022/11/02 15:39:07;;;;;;;23.90;5.93;;;;;;;;;;12762146;23;20028;-79
2022/11/02 15:44:26;;;;;;;17.30;5.15;;;;;;;;;;12760956;23;20004;-75
2022/11/02 15:49:29;;;;;;;28.75;5.15;;;;;;;;;;12807367;23;20429;-74
2022/11/02 15:54:35;;;;;;;25.23;4.88;;;;;;;;;;12808711;23;19997;-77
2022/11/02 15:59:44;;;;;;;23.48;6.55;;;;;;;;;;12760515;23;20431;-75
2022/11/02 16:04:46;;;;;;;18.98;6.13;;;;;;;;;;12761268;23;20279;-73
2022/11/02 16:09:48;;;;;;;17.63;5.75;;;;;;;;;;12736663;23;20442;-76
2022/11/02 16:14:54;;;;;;;14.10;5.70;;;;;;;;;;12760724;23;19993;-75
2022/11/02 16:20:14;;;;;;;14.57;5.78;;;;;;;;;;12814983;23;19997;-73
2022/11/02 16:25:33;;;;;;;18.05;5.72;;;;;;;;;;12769365;23;20349;-74
2022/11/02 16:30:33;;;;;;;17.60;5.30;;;;;;;;;;12761700;23;20008;-75
2022/11/02 16:35:33;;;;;;;23.85;5.75;;;;;;;;;;12759677;23;19993;-73
2022/11/02 16:40:35;;;;;;;22.53;6.13;;;;;;;;;;12753544;23;20009;-77
2022/11/02 16:45:37;;;;;;;22.70;5.28;;;;;;;;;;12754415;23;19997;-78
2022/11/02 16:50:38;;;;;;;29.92;10.00;;;;;;;;;;12753424;23;20572;-79
2022/11/02 16:55:39;;;;;;;25.20;5.72;;;;;;;;;;12754981;23;20037;-79
2022/11/02 17:00:51;;;;;;;21.27;6.70;;;;;;;;;;12804150;23;20028;-79
2022/11/02 17:05:52;;;;;;;31.48;7.22;;;;;;;;;;12758218;23;19989;-78
2022/11/02 17:10:58;;;;;;;19.65;6.65;;;;;;;;;;12804834;23;20430;-78
2022/11/02 17:16:09;;;;;;;14.10;6.30;;;;;;;;;;12755253;23;20001;-79
2022/11/02 17:21:12;;;;;;;13.20;5.28;;;;;;;;;;12756140;23;20001;-78
2022/11/02 17:26:18;;;;;;;23.02;4.95;;;;;;;;;;12803390;23;19985;-77
2022/11/02 17:31:20;;;;;;;17.75;4.82;;;;;;;;;;12758014;23;20338;-79
2022/11/02 17:36:21;;;;;;;16.92;5.63;;;;;;;;;;12751531;23;20746;-75
2022/11/02 17:46:41;;;;;;;19.02;3.88;;;;;;;;;;12788017;23;20021;-75
2022/11/02 17:51:41;;;;;;;21.85;6.40;;;;;;;;;;12756711;23;20562;-78
2022/11/02 17:56:41;;;;;;;15.52;5.28;;;;;;;;;;12756972;23;20076;-78
2022/11/02 18:01:42;;;;;;;23.00;6.45;;;;;;;;;;12757960;23;20005;-76
2022/11/02 18:06:42;;;;;;;18.38;5.22;;;;;;;;;;12806464;23;20035;-78
2022/11/02 18:11:42;;;;;;;16.25;5.45;;;;;;;;;;12761273;23;19993;-76
2022/11/02 18:16:43;;;;;;;17.27;4.97;;;;;;;;;;12760857;23;19993;-77
2022/11/02 18:21:43;;;;;;;14.65;4.03;;;;;;;;;;12759539;23;20001;-77
2022/11/02 18:26:43;;;;;;;15.88;4.50;;;;;;;;;;12759506;23;19993;-76
2022/11/02 18:31:43;;;;;;;15.90;5.57;;;;;;;;;;12760608;23;20017;-80
2022/11/02 18:36:44;;;;;;;14.82;4.45;;;;;;;;;;12760432;23;19997;-77
2022/11/02 18:41:45;;;;;;;11.68;4.78;;;;;;;;;;12807566;23;20112;-78
2022/11/02 18:46:45;;;;;;;15.57;4.22;;;;;;;;;;12760768;23;20357;-74
2022/11/02 18:51:46;;;;;;;12.35;4.45;;;;;;;;;;12760114;23;20575;-74
2022/11/02 18:56:46;;;;;;;11.75;4.63;;;;;;;;;;12806004;23;20020;-76
2022/11/02 19:01:47;;;;;;;20.20;5.72;;;;;;;;;;12806146;23;20067;-76
2022/11/02 19:12:15;;;;;;;12.35;4.90;;;;;;;;;;12809799;23;20572;-75
2022/11/02 19:17:15;;;;;;;17.55;4.95;;;;;;;;;;12778590;23;20000;-73
2022/11/02 19:22:23;;;;;;;17.40;7.67;;;;;;;;;;12779257;23;20271;-74
2022/11/02 19:27:24;;;;;;;19.85;5.70;;;;;;;;;;12760318;23;20463;-72
2022/11/02 19:32:24;;;;;;;16.17;5.50;;;;;;;;;;12759810;23;20072;-73
2022/11/02 19:37:24;;;;;;;19.60;7.13;;;;;;;;;;12759764;23;20000;-75
2022/11/02 19:42:25;;;;;;;18.23;5.82;;;;;;;;;;12757939;23;20268;-78
2022/11/02 19:47:26;;;;;;;19.58;6.38;;;;;;;;;;12759306;23;20461;-75
2022/11/02 19:52:26;;;;;;;21.80;6.45;;;;;;;;;;12759957;23;20484;-73
2022/11/02 19:57:28;;;;;;;27.33;7.43;;;;;;;;;;12760601;23;20001;-76
2022/11/02 20:02:29;;;;;;;23.48;10.57;;;;;;;;;;12761019;23;20024;-73
2022/11/02 20:07:29;;;;;;;28.17;12.25;;;;;;;;;;12761408;23;20062;-72
2022/11/02 20:12:31;;;;;;;14.30;5.97;;;;;;;;;;12759420;23;19997;-74
2022/11/02 20:17:31;;;;;;;16.52;6.75;;;;;;;;;;12781552;23;20477;-73
2022/11/02 20:22:33;;;;;;;16.35;5.57;;;;;;;;;;12825000;23;19997;-72
2022/11/02 20:27:36;;;;;;;14.43;6.50;;;;;;;;;;12768748;23;19993;-73
2022/11/02 20:32:36;;;;;;;16.33;5.45;;;;;;;;;;12806693;23;20164;-74
2022/11/02 20:37:36;;;;;;;18.42;6.93;;;;;;;;;;12761226;23;19993;-74
2022/11/02 20:42:37;;;;;;;14.15;6.05;;;;;;;;;;12760545;23;19997;-74
2022/11/02 20:47:37;;;;;;;13.60;5.63;;;;;;;;;;12759381;23;20087;-72
2022/11/02 20:52:37;;;;;;;12.37;6.33;;;;;;;;;;12759856;23;20044;-75
2022/11/02 20:57:39;;;;;;;12.60;5.90;;;;;;;;;;12758835;23;20536;-77
2022/11/02 21:02:39;;;;;;;17.52;7.03;;;;;;;;;;12806725;23;20059;-74
2022/11/02 21:07:39;;;;;;;17.38;6.78;;;;;;;;;;12760339;23;19993;-72
2022/11/02 21:17:59;;;;;;;12.55;5.30;;;;;;;;;;12761612;23;20442;-74
2022/11/02 21:23:01;;;;;;;11.95;5.47;;;;;;;;;;12757729;23;19993;-72
2022/11/02 21:28:02;;;;;;;11.25;5.57;;;;;;;;;;12759717;23;20114;-73
2022/11/02 21:33:02;;;;;;;21.52;6.00;;;;;;;;;;12759781;23;20000;-75
2022/11/02 21:38:02;;;;;;;11.32;5.88;;;;;;;;;;12757236;23;20003;-74
2022/11/02 21:43:02;;;;;;;12.98;5.05;;;;;;;;;;12759301;23;19993;-74
2022/11/02 21:48:03;;;;;;;15.15;4.82;;;;;;;;;;12758810;23;20091;-76
2022/11/02 21:53:04;;;;;;;13.20;4.80;;;;;;;;;;12758530;23;20017;-79
2022/11/02 21:58:06;;;;;;;11.43;4.07;;;;;;;;;;12759863;23;20001;-80
2022/11/02 22:03:07;;;;;;;8.25;3.33;;;;;;;;;;12765189;23;20096;-71
2022/11/02 22:13:32;;;;;;;9.35;4.00;;;;;;;;;;12820403;23;19997;-73
2022/11/02 22:18:32;;;;;;;11.60;3.95;;;;;;;;;;12793673;23;20068;-73
2022/11/02 22:23:32;;;;;;;15.70;6.35;;;;;;;;;;12782064;23;20047;-74
2022/11/02 22:28:34;;;;;;;10.38;4.22;;;;;;;;;;12806525;23;19993;-73
2022/11/02 22:33:34;;;;;;;9.90;3.42;;;;;;;;;;12805723;23;20119;-75
2022/11/02 22:38:49;;;;;;;13.32;4.65;;;;;;;;;;12757815;23;20056;-75
2022/11/02 22:43:51;;;;;;;10.32;3.58;;;;;;;;;;12737297;23;20072;-77
2022/11/02 22:48:53;;;;;;;14.88;4.50;;;;;;;;;;12801727;23;20024;-81
2022/11/02 22:53:53;;;;;;;15.85;5.30;;;;;;;;;;12823774;23;20065;-75
2022/11/02 22:58:54;;;;;;;11.50;5.40;;;;;;;;;;12824124;23;20043;-74
2022/11/02 23:03:55;;;;;;;10.85;6.00;;;;;;;;;;12871973;23;20016;-75
2022/11/02 23:08:56;;;;;;;9.90;5.13;;;;;;;;;;12824019;23;19996;-77
2022/11/02 23:14:04;;;;;;;15.10;4.75;;;;;;;;;;12825365;23;20228;-78
2022/11/02 23:40:23;;;;;;;12.55;5.45;;;;;;;;;;12872738;23;20032;-76
2022/11/02 23:45:23;;;;;;;14.18;4.78;;;;;;;;;;12824522;23;20000;-77
